Time;durP1;ratioP1;P1;durP2;ratioP2;P2;SDS_P1;SDS_P2;PMS_P1;PMS_P2;Temp;Humidity;BMP_temperature;BMP_pressure;BME280_temperature;BME280_humidity;BME280_pressure;Samples;Min_cycle;Max_cycle;Signal;HPM_P1;HPM_P2
2021/03/01 00:02:00;;;;;;;;;;;;;;;17.63;67.60;101980.16;5012120;28;1535;-58
2021/03/01 00:04:26;;;;;;;;;;;;;;;17.62;67.87;101984.63;5024509;28;1589;-58
2021/03/01 00:06:51;;;;;;;;;;;;;;;17.60;67.24;101975.00;5027732;28;1312;-58
2021/03/01 00:09:16;;;;;;;;;;;;;;;17.63;67.07;101966.78;5023071;28;1487;-58
2021/03/01 00:11:42;;;;;;;;;;;;;;;17.60;67.67;101975.84;5025880;28;1427;-58
2021/03/01 00:14:07;;;;;;;;;;;;;;;17.59;67.76;101973.28;5031513;28;1502;-67
2021/03/01 00:16:32;;;;;;;;;;;;;;;17.57;68.12;101981.41;5029935;28;1381;-68
2021/03/01 00:18:58;;;;;;;;;;;;;;;17.60;67.85;101972.31;5030192;28;1975;-67
2021/03/01 00:21:23;;;;;;;;;;;;;;;17.60;68.05;101975.00;5025832;28;1513;-58
2021/03/01 00:23:49;;;;;;;;;;;;;;;17.55;68.40;101967.28;5024022;28;1307;-58
2021/03/01 00:26:14;;;;;;;;;;;;;;;17.56;66.92;101966.31;5026286;28;1573;-65
2021/03/01 00:28:41;;;;;;;;;;;;;;;17.55;67.52;101956.56;5025124;28;1365;-67
2021/03/01 00:31:06;;;;;;;;;;;;;;;17.56;68.07;101941.38;5026181;28;1458;-67
2021/03/01 00:33:32;;;;;;;;;;;;;;;17.55;67.97;101950.34;5025324;28;1505;-67
2021/03/01 00:35:57;;;;;;;;;;;;;;;17.54;67.52;101946.81;5026343;28;1717;-58
2021/03/01 00:38:22;;;;;;;;;;;;;;;17.56;67.22;101942.22;5022495;28;1890;-58
2021/03/01 00:40:48;;;;;;;;;;;;;;;17.53;68.57;101947.78;5027523;28;1541;-67
2021/03/01 00:43:13;;;;;;;;;;;;;;;17.54;68.40;101935.28;5024937;28;1628;-67
2021/03/01 00:45:39;;;;;;;;;;;;;;;17.54;68.50;101932.59;5025151;28;1222;-67
2021/03/01 00:48:04;;;;;;;;;;;;;;;17.53;68.08;101925.50;5025269;28;1666;-58
2021/03/01 00:50:29;;;;;;;;;;;;;;;17.55;67.95;101926.28;5024286;28;1486;-67
2021/03/01 00:52:55;;;;;;;;;;;;;;;17.52;67.18;101929.16;5028292;28;1427;-67
2021/03/01 00:55:20;;;;;;;;;;;;;;;17.49;67.72;101925.72;5024061;28;1561;-66
2021/03/01 00:57:46;;;;;;;;;;;;;;;17.53;68.28;101929.06;5024668;28;1679;-58
2021/03/01 01:00:13;;;;;;;;;;;;;;;17.48;67.55;101924.00;5022416;28;1992;-65
2021/03/01 01:02:38;;;;;;;;;;;;;;;17.46;67.84;101920.56;5023576;28;1555;-67
2021/03/01 01:05:04;;;;;;;;;;;;;;;17.48;67.58;101929.34;5021973;28;1363;-58
2021/03/01 01:07:29;;;;;;;;;;;;;;;17.49;67.72;101927.53;5022450;28;1456;-58
2021/03/01 01:09:54;;;;;;;;;;;;;;;17.46;67.12;101931.25;5023640;28;1375;-67
2021/03/01 01:12:20;;;;;;;;;;;;;;;17.45;67.30;101934.06;5024041;28;1478;-68
2021/03/01 01:14:45;;;;;;;;;;;;;;;17.45;66.79;101928.69;5020726;28;1498;-67
2021/03/01 01:17:11;;;;;;;;;;;;;;;17.45;67.46;101940.25;5029009;28;1577;-58
2021/03/01 01:19:36;;;;;;;;;;;;;;;17.46;67.89;101946.44;5026145;28;1981;-58
2021/03/01 01:22:02;;;;;;;;;;;;;;;17.45;68.14;101945.59;5027491;28;1415;-58
2021/03/01 01:24:27;;;;;;;;;;;;;;;17.43;67.86;101941.31;5025497;28;1375;-67
2021/03/01 01:26:52;;;;;;;;;;;;;;;17.43;67.12;101935.97;5024805;28;1626;-58
2021/03/01 01:29:18;;;;;;;;;;;;;;;17.42;66.87;101937.75;5026845;28;1578;-67
2021/03/01 01:31:43;;;;;;;;;;;;;;;17.42;67.46;101935.06;5026063;28;1455;-67
2021/03/01 01:34:08;;;;;;;;;;;;;;;17.40;67.71;101934.31;5021604;28;1408;-58
2021/03/01 01:36:34;;;;;;;;;;;;;;;17.38;67.59;101930.88;5025938;28;1357;-58
2021/03/01 01:38:59;;;;;;;;;;;;;;;17.40;66.54;101928.97;5027337;28;1898;-67
2021/03/01 01:41:25;;;;;;;;;;;;;;;17.41;67.80;101922.69;5024855;28;1621;-58
2021/03/01 01:43:50;;;;;;;;;;;;;;;17.41;66.97;101928.03;5023080;28;1315;-58
2021/03/01 01:46:15;;;;;;;;;;;;;;;17.38;67.32;101936.22;5024673;28;1462;-67
2021/03/01 01:48:41;;;;;;;;;;;;;;;17.40;67.86;101936.13;5025576;28;1424;-67
2021/03/01 01:51:06;;;;;;;;;;;;;;;17.36;67.22;101932.78;5025221;28;1370;-66
2021/03/01 01:53:31;;;;;;;;;;;;;;;17.37;67.19;101926.50;5023476;28;1734;-58
2021/03/01 01:55:59;;;;;;;;;;;;;;;17.37;67.02;101937.19;5026274;28;1585;-67
2021/03/01 01:58:24;;;;;;;;;;;;;;;17.38;67.54;101936.22;5027131;28;1957;-67
2021/03/01 02:00:50;;;;;;;;;;;;;;;17.37;66.83;101925.63;5024485;28;1348;-58
2021/03/01 02:03:24;;;;;;;;;;;;;;;17.37;67.23;101933.63;5021670;28;1712;-67
2021/03/01 02:05:51;;;;;;;;;;;;;;;17.36;67.29;101930.13;5028674;28;1702;-67
2021/03/01 02:08:27;;;;;;;;;;;;;;;17.36;66.67;101931.94;5025305;28;1513;-66
2021/03/01 02:11:15;;;;;;;;;;;;;;;17.37;67.51;101931.84;5021319;28;1506;-67
2021/03/01 02:13:45;;;;;;;;;;;;;;;17.37;67.46;101939.00;5022463;28;1499;-58
2021/03/01 02:16:23;;;;;;;;;;;;;;;17.32;67.53;101928.59;5025343;28;1565;-67
2021/03/01 02:18:49;;;;;;;;;;;;;;;17.33;66.62;101930.31;5028787;28;1977;-67
2021/03/01 02:21:14;;;;;;;;;;;;;;;17.34;67.17;101931.19;5023501;28;1529;-67
2021/03/01 02:23:40;;;;;;;;;;;;;;;17.35;66.60;101939.13;5023943;28;1550;-67
2021/03/01 02:26:10;;;;;;;;;;;;;;;17.32;67.18;101936.63;5026831;28;1568;-58
2021/03/01 02:28:39;;;;;;;;;;;;;;;17.30;66.48;101935.84;5027873;28;1381;-67
2021/03/01 02:31:06;;;;;;;;;;;;;;;17.27;67.45;101944.94;5027549;28;1308;-58
2021/03/01 02:33:33;;;;;;;;;;;;;;;17.30;67.30;101942.06;5020244;28;1320;-67
2021/03/01 02:36:19;;;;;;;;;;;;;;;17.32;67.33;101947.31;5025200;28;1454;-67
2021/03/01 02:38:44;;;;;;;;;;;;;;;17.29;66.67;101936.81;5023080;28;1889;-67
2021/03/01 02:41:11;;;;;;;;;;;;;;;17.30;67.35;101941.19;5023766;28;1573;-67
2021/03/01 02:43:37;;;;;;;;;;;;;;;17.29;67.02;101947.53;5026299;28;1477;-58
2021/03/01 02:46:03;;;;;;;;;;;;;;;17.27;66.83;101936.91;5023159;28;1434;-67
2021/03/01 02:48:29;;;;;;;;;;;;;;;17.30;66.69;101935.84;5028692;28;1553;-58
2021/03/01 02:50:56;;;;;;;;;;;;;;;17.28;66.93;101943.97;5026802;28;1781;-57
2021/03/01 02:53:23;;;;;;;;;;;;;;;17.26;66.80;101945.03;5028175;28;1645;-67
2021/03/01 02:55:49;;;;;;;;;;;;;;;17.25;67.20;101948.66;5014195;28;1502;-58
2021/03/01 02:58:17;;;;;;;;;;;;;;;17.24;66.44;101931.75;5031651;28;1961;-67
2021/03/01 03:03:11;;;;;;;;;;;;;;;17.30;67.47;101946.53;5025150;28;1701;-48
2021/03/01 03:05:37;;;;;;;;;;;;;;;17.28;66.06;101961.81;5030641;28;1761;-48
2021/03/01 03:08:03;;;;;;;;;;;;;;;17.24;66.98;101966.50;5023959;28;1552;-49
2021/03/01 03:10:29;;;;;;;;;;;;;;;17.24;66.12;101950.47;5042099;22;3594;-68
2021/03/01 03:12:55;;;;;;;;;;;;;;;17.26;66.55;101955.72;5007942;28;1578;-67
2021/03/01 03:15:20;;;;;;;;;;;;;;;17.24;67.03;101963.81;5014750;28;1634;-58
2021/03/01 03:17:48;;;;;;;;;;;;;;;16.90;67.40;101912.44;5013869;28;1617;-59
2021/03/01 03:20:14;;;;;;;;;;;;;;;17.24;66.27;101971.00;4995817;28;1958;-58
2021/03/01 03:22:39;;;;;;;;;;;;;;;17.23;67.47;101961.25;4993126;28;1489;-68
2021/03/01 03:25:05;;;;;;;;;;;;;;;17.24;67.25;101973.66;5015610;28;1482;-68
2021/03/01 03:27:31;;;;;;;;;;;;;;;17.21;66.73;101964.03;5010294;28;1432;-67
2021/03/01 03:29:56;;;;;;;;;;;;;;;17.20;66.07;101967.63;5013355;28;1324;-68
2021/03/01 03:32:21;;;;;;;;;;;;;;;17.21;67.23;101969.38;5013487;28;1478;-58
2021/03/01 03:34:47;;;;;;;;;;;;;;;17.21;66.47;101955.13;5008734;28;1733;-58
2021/03/01 03:37:17;;;;;;;;;;;;;;;17.21;65.89;101980.06;5009963;28;1280;-68
2021/03/01 03:39:45;;;;;;;;;;;;;;;17.20;66.30;101972.13;5010573;28;1886;-58
2021/03/01 03:42:18;;;;;;;;;;;;;;;17.21;66.34;101979.19;5005846;28;1479;-58
2021/03/01 03:44:44;;;;;;;;;;;;;;;17.22;65.88;101981.78;5013476;28;1320;-68
2021/03/01 03:47:10;;;;;;;;;;;;;;;17.22;66.83;101992.47;5010152;28;1364;-68
2021/03/01 03:49:36;;;;;;;;;;;;;;;17.21;66.63;101995.22;5010423;28;1423;-59
2021/03/01 03:52:02;;;;;;;;;;;;;;;17.21;66.87;101997.91;5013489;28;1930;-58
2021/03/01 03:54:29;;;;;;;;;;;;;;;17.21;66.33;102008.59;5011880;28;1625;-59
2021/03/01 03:56:56;;;;;;;;;;;;;;;17.22;65.61;102007.66;5007037;28;1369;-58
2021/03/01 03:59:22;;;;;;;;;;;;;;;17.17;66.68;101983.88;5010411;28;1957;-68
2021/03/01 04:01:52;;;;;;;;;;;;;;;17.16;66.15;101989.31;5014895;28;1464;-59
2021/03/01 04:04:19;;;;;;;;;;;;;;;17.17;66.96;101999.03;5033072;28;1335;-58
2021/03/01 04:06:45;;;;;;;;;;;;;;;17.17;65.62;101983.88;5031368;28;1372;-58
2021/03/01 04:09:11;;;;;;;;;;;;;;;17.19;65.55;101990.00;5027279;28;1431;-68
2021/03/01 04:11:39;;;;;;;;;;;;;;;17.16;65.95;101971.47;5031266;28;1557;-58
2021/03/01 04:14:04;;;;;;;;;;;;;;;17.15;65.63;101979.56;5012834;28;1489;-68
2021/03/01 04:16:30;;;;;;;;;;;;;;;17.14;66.24;101981.38;5026410;28;1427;-67
2021/03/01 04:18:58;;;;;;;;;;;;;;;17.17;65.65;101991.91;5029628;28;1910;-68
2021/03/01 04:21:25;;;;;;;;;;;;;;;17.16;66.15;101978.63;5027089;28;1430;-68
2021/03/01 04:23:52;;;;;;;;;;;;;;;17.17;66.33;101985.66;5020662;28;1339;-58
2021/03/01 04:26:18;;;;;;;;;;;;;;;17.15;65.87;101992.94;5014733;28;1455;-68
2021/03/01 04:28:44;;;;;;;;;;;;;;;17.17;66.16;101981.22;5032003;28;1327;-59
2021/03/01 04:31:10;;;;;;;;;;;;;;;17.24;66.98;101979.00;5026502;28;1408;-68
2021/03/01 04:33:36;;;;;;;;;;;;;;;17.25;66.40;101996.78;5016624;28;1382;-68
2021/03/01 04:36:03;;;;;;;;;;;;;;;17.24;66.82;102000.41;5029592;28;1283;-69
2021/03/01 04:38:30;;;;;;;;;;;;;;;17.26;68.28;102011.84;5026468;28;1955;-59
2021/03/01 04:40:56;;;;;;;;;;;;;;;17.24;68.45;101998.56;5029342;28;1517;-58
2021/03/01 04:43:22;;;;;;;;;;;;;;;17.21;67.49;101995.22;5032845;28;1566;-59
2021/03/01 04:45:50;;;;;;;;;;;;;;;17.22;68.71;102013.00;5029598;28;1343;-59
2021/03/01 04:48:16;;;;;;;;;;;;;;;17.20;67.56;102018.44;5014098;28;1619;-68
2021/03/01 04:50:42;;;;;;;;;;;;;;;17.21;66.43;102016.59;5033300;28;1525;-68
2021/03/01 04:53:08;;;;;;;;;;;;;;;17.23;67.01;102009.34;5031225;28;1430;-59
2021/03/01 04:55:34;;;;;;;;;;;;;;;17.23;67.07;102014.69;5014915;28;1482;-67
2021/03/01 04:58:00;;;;;;;;;;;;;;;17.25;67.32;102026.19;5013832;28;1305;-60
2021/03/01 05:00:25;;;;;;;;;;;;;;;17.21;67.52;102032.66;5023125;28;1889;-68
2021/03/01 05:02:51;;;;;;;;;;;;;;;17.22;67.55;102031.72;5030327;28;1537;-68
2021/03/01 05:05:16;;;;;;;;;;;;;;;17.20;67.42;102041.63;5032339;28;1569;-68
2021/03/01 05:07:43;;;;;;;;;;;;;;;17.22;67.60;102051.28;5005579;28;1492;-67
2021/03/01 05:10:10;;;;;;;;;;;;;;;17.17;64.85;102045.38;5025761;28;1547;-69
2021/03/01 05:12:35;;;;;;;;;;;;;;;17.14;66.85;102061.56;5026198;28;1503;-68
2021/03/01 05:15:00;;;;;;;;;;;;;;;17.18;66.77;102056.91;5008367;28;1381;-68
2021/03/01 05:17:26;;;;;;;;;;;;;;;17.18;67.11;102048.88;5027586;28;1518;-61
2021/03/01 05:19:51;;;;;;;;;;;;;;;17.17;66.97;102047.16;5014748;28;1917;-67
2021/03/01 05:22:16;;;;;;;;;;;;;;;17.24;67.53;102044.03;5032091;28;1407;-59
2021/03/01 05:24:42;;;;;;;;;;;;;;;17.25;68.33;102047.59;5014272;28;1545;-60
2021/03/01 05:27:08;;;;;;;;;;;;;;;17.22;68.28;102043.25;5034496;28;1438;-59
2021/03/01 05:29:34;;;;;;;;;;;;;;;17.24;68.44;102051.19;5034619;28;1585;-60
2021/03/01 05:31:59;;;;;;;;;;;;;;;17.23;67.88;102041.44;5033218;28;1584;-52
2021/03/01 05:34:24;;;;;;;;;;;;;;;17.23;67.88;102054.81;5032189;28;1573;-49
2021/03/01 05:36:50;;;;;;;;;;;;;;;17.21;68.06;102044.22;5027377;28;1616;-67
2021/03/01 05:39:15;;;;;;;;;;;;;;;17.19;67.90;102047.91;5031381;28;1906;-65
2021/03/01 05:41:41;;;;;;;;;;;;;;;17.17;67.75;102053.38;5034292;28;991;-51
2021/03/01 05:44:07;;;;;;;;;;;;;;;17.16;67.79;102053.47;5035528;28;706;-67
2021/03/01 05:46:33;;;;;;;;;;;;;;;17.13;68.02;102042.94;5035498;28;867;-67
2021/03/01 05:48:59;;;;;;;;;;;;;;;17.13;68.52;102049.19;5035338;28;839;-67
2021/03/01 05:51:25;;;;;;;;;;;;;;;17.14;67.86;102050.03;5035806;28;940;-50
2021/03/01 05:53:51;;;;;;;;;;;;;;;17.13;68.82;102061.66;5035617;28;750;-67
2021/03/01 05:56:17;;;;;;;;;;;;;;;17.13;67.92;102061.66;5035509;28;808;-51
2021/03/01 05:58:44;;;;;;;;;;;;;;;17.18;68.76;102070.28;5035065;28;1886;-50
2021/03/01 06:01:09;;;;;;;;;;;;;;;17.21;68.76;102076.31;5035223;28;1313;-50
2021/03/01 06:03:35;;;;;;;;;;;;;;;17.27;68.72;102072.41;5035412;28;853;-50
2021/03/01 06:06:01;;;;;;;;;;;;;;;17.30;67.38;102089.09;5017639;28;1292;-51
2021/03/01 06:08:26;;;;;;;;;;;;;;;17.37;68.26;102094.97;5035066;28;1618;-50
2021/03/01 06:10:58;;;;;;;;;;;;;;;17.43;67.24;102096.41;5034937;28;1864;-50
2021/03/01 06:13:24;;;;;;;;;;;;;;;17.46;67.66;102102.41;5035117;28;825;-67
2021/03/01 06:15:51;;;;;;;;;;;;;;;17.52;67.18;102113.69;5035305;28;792;-67
2021/03/01 06:18:17;;;;;;;;;;;;;;;17.57;66.98;102116.97;5035154;28;796;-61
2021/03/01 06:20:42;;;;;;;;;;;;;;;17.63;67.52;102130.81;5035151;28;1977;-67
2021/03/01 06:23:08;;;;;;;;;;;;;;;17.72;66.65;102129.38;5034764;28;870;-67
2021/03/01 06:25:33;;;;;;;;;;;;;;;17.76;66.58;102125.56;5035301;28;775;-67
2021/03/01 06:28:00;;;;;;;;;;;;;;;17.82;66.93;102135.88;5034756;28;912;-50
2021/03/01 06:30:26;;;;;;;;;;;;;;;17.88;66.65;102137.38;5034943;28;730;-67
2021/03/01 06:33:06;;;;;;;;;;;;;;;17.96;66.80;102142.25;5035029;28;869;-67
2021/03/01 06:35:32;;;;;;;;;;;;;;;17.98;66.25;102140.34;5034798;28;726;-54
2021/03/01 06:38:18;;;;;;;;;;;;;;;18.01;66.39;102142.84;5034695;28;790;-67
2021/03/01 06:40:44;;;;;;;;;;;;;;;18.05;66.88;102144.34;5034460;28;1954;-67
2021/03/01 06:43:13;;;;;;;;;;;;;;;18.08;66.32;102137.00;5034885;28;740;-50
2021/03/01 06:45:38;;;;;;;;;;;;;;;18.12;66.36;102145.69;5034832;28;758;-67
2021/03/01 06:48:03;;;;;;;;;;;;;;;18.14;65.90;102145.59;5034856;28;863;-68
2021/03/01 06:50:32;;;;;;;;;;;;;;;18.17;65.76;102145.41;5035099;28;741;-50
2021/03/01 06:53:17;;;;;;;;;;;;;;;18.20;66.11;102159.44;5034794;28;799;-67
2021/03/01 06:56:01;;;;;;;;;;;;;;;18.24;65.45;102171.72;5034054;28;1474;-51
2021/03/01 06:58:27;;;;;;;;;;;;;;;18.27;65.65;102163.47;5034732;28;1881;-67
2021/03/01 07:00:58;;;;;;;;;;;;;;;18.29;65.80;102166.91;5034465;28;1472;-68
2021/03/01 07:03:24;;;;;;;;;;;;;;;18.31;65.38;102169.50;5034745;28;802;-50
2021/03/01 07:05:50;;;;;;;;;;;;;;;18.35;65.20;102170.16;5034348;28;760;-50
2021/03/01 07:08:30;;;;;;;;;;;;;;;18.39;65.52;102172.53;5034656;28;835;-50
2021/03/01 07:10:55;;;;;;;;;;;;;;;18.41;65.49;102175.13;5034505;28;1085;-68
2021/03/01 07:13:26;;;;;;;;;;;;;;;18.33;65.10;102164.06;5034601;28;767;-52
2021/03/01 07:16:00;;;;;;;;;;;;;;;18.33;65.64;102162.22;5034326;28;1102;-50
2021/03/01 07:18:27;;;;;;;;;;;;;;;18.28;65.64;102159.84;5034523;28;1910;-50
2021/03/01 07:20:52;;;;;;;;;;;;;;;18.29;65.97;102169.59;5017403;28;812;-67
2021/03/01 07:23:18;;;;;;;;;;;;;;;18.28;65.64;102167.88;5034633;28;890;-67
2021/03/01 07:25:44;;;;;;;;;;;;;;;18.24;65.79;102169.03;5034205;28;827;-50
2021/03/01 07:28:11;;;;;;;;;;;;;;;18.26;65.62;102183.19;5016792;28;688;-50
2021/03/01 07:30:37;;;;;;;;;;;;;;;18.24;65.68;102170.81;5034107;28;829;-67
2021/03/01 07:33:03;;;;;;;;;;;;;;;18.25;65.57;102173.41;5034350;28;788;-67
2021/03/01 07:35:29;;;;;;;;;;;;;;;18.22;66.28;102184.34;5036574;28;1606;-67
2021/03/01 07:37:54;;;;;;;;;;;;;;;18.25;65.68;102165.38;5038071;28;839;-67
2021/03/01 07:40:20;;;;;;;;;;;;;;;18.28;65.31;102183.94;5037982;28;1882;-50
2021/03/01 07:42:45;;;;;;;;;;;;;;;18.26;65.46;102179.63;5037935;28;746;-68
2021/03/01 07:45:11;;;;;;;;;;;;;;;18.34;65.62;102188.03;5037961;28;799;-67
2021/03/01 07:47:36;;;;;;;;;;;;;;;18.39;65.16;102169.00;5037687;28;879;-61
2021/03/01 07:50:02;;;;;;;;;;;;;;;18.37;65.27;102179.81;5038118;28;775;-50
2021/03/01 07:52:28;;;;;;;;;;;;;;;18.39;64.94;102177.91;5037547;28;1160;-67
2021/03/01 07:54:54;;;;;;;;;;;;;;;18.42;65.21;102182.19;5037464;28;848;-50
2021/03/01 07:57:20;;;;;;;;;;;;;;;18.33;65.35;102161.38;5037635;28;851;-50
2021/03/01 07:59:46;;;;;;;;;;;;;;;18.35;65.53;102179.06;5037431;28;1890;-66
2021/03/01 08:02:15;;;;;;;;;;;;;;;18.32;65.59;102157.81;5037567;28;1461;-67
2021/03/01 08:04:41;;;;;;;;;;;;;;;18.32;65.35;102165.00;5037293;28;742;-67
2021/03/01 08:07:06;;;;;;;;;;;;;;;18.32;65.71;102168.53;5037273;28;818;-67
2021/03/01 08:09:45;;;;;;;;;;;;;;;18.33;65.38;102177.44;5037533;28;756;-59
2021/03/01 08:12:11;;;;;;;;;;;;;;;18.28;65.43;102175.03;5037288;28;1121;-68
2021/03/01 08:14:49;;;;;;;;;;;;;;;18.26;65.21;102188.53;5037164;28;766;-68
2021/03/01 08:17:26;;;;;;;;;;;;;;;18.26;65.80;102175.16;5037044;28;928;-51
2021/03/01 08:19:55;;;;;;;;;;;;;;;18.23;65.86;102167.28;5037265;28;1914;-50
2021/03/01 08:22:20;;;;;;;;;;;;;;;18.19;65.93;102175.63;5037008;28;936;-67
2021/03/01 08:24:49;;;;;;;;;;;;;;;18.23;65.44;102166.44;5036883;28;804;-67
2021/03/01 08:27:27;;;;;;;;;;;;;;;18.24;65.57;102182.41;5037148;28;835;-50
2021/03/01 08:30:10;;;;;;;;;;;;;;;18.22;65.29;102178.09;5036849;28;810;-67
2021/03/01 08:32:36;;;;;;;;;;;;;;;18.25;65.79;102184.13;5037051;28;739;-68
2021/03/01 08:35:20;;;;;;;;;;;;;;;18.25;65.34;102165.38;5037068;28;811;-50
2021/03/01 08:37:46;;;;;;;;;;;;;;;18.27;65.78;102182.22;5036746;28;852;-50
2021/03/01 08:40:18;;;;;;;;;;;;;;;18.26;65.33;102167.13;5036927;28;1889;-62
2021/03/01 08:42:43;;;;;;;;;;;;;;;18.31;65.21;102168.66;5036680;28;804;-50
2021/03/01 08:45:09;;;;;;;;;;;;;;;18.31;65.63;102148.06;5036670;28;846;-67
2021/03/01 08:47:34;;;;;;;;;;;;;;;18.32;65.10;102159.63;5036459;28;983;-50
2021/03/01 08:50:03;;;;;;;;;;;;;;;18.34;65.72;102163.94;5036808;28;883;-67
2021/03/01 08:52:28;;;;;;;;;;;;;;;18.36;64.98;102166.50;5036751;28;834;-68
2021/03/01 08:54:54;;;;;;;;;;;;;;;18.37;64.87;102158.41;5036433;28;856;-68
2021/03/01 08:57:19;;;;;;;;;;;;;;;18.40;65.16;102182.31;5036312;28;792;-67
2021/03/01 08:59:44;;;;;;;;;;;;;;;18.42;65.18;102158.09;5036497;28;1886;-68
2021/03/01 09:02:19;;;;;;;;;;;;;;;18.44;65.13;102159.75;5036507;28;1322;-50
2021/03/01 09:04:45;;;;;;;;;;;;;;;18.42;64.79;102160.78;5018855;28;801;-67
2021/03/01 09:07:10;;;;;;;;;;;;;;;18.38;64.65;102186.91;5036147;28;967;-50
2021/03/01 09:09:45;;;;;;;;;;;;;;;18.35;64.86;102164.81;5036584;28;1507;-68
2021/03/01 09:12:16;;;;;;;;;;;;;;;18.36;64.96;102174.56;5036167;28;1089;-50
2021/03/01 09:14:41;;;;;;;;;;;;;;;18.35;65.52;102170.16;5036218;28;860;-50
2021/03/01 09:17:08;;;;;;;;;;;;;;;18.33;65.24;102177.44;5036148;28;745;-68
2021/03/01 09:19:34;;;;;;;;;;;;;;;18.35;65.36;102178.19;5036154;28;1973;-51
2021/03/01 09:21:59;;;;;;;;;;;;;;;18.37;65.19;102178.97;5035815;28;867;-67
2021/03/01 09:24:30;;;;;;;;;;;;;;;18.39;64.91;102183.25;5036085;28;813;-67
2021/03/01 09:26:55;;;;;;;;;;;;;;;18.40;65.29;102187.69;5035741;28;884;-67
2021/03/01 09:29:21;;;;;;;;;;;;;;;18.42;64.91;102188.44;5035619;28;1078;-52
2021/03/01 09:31:48;;;;;;;;;;;;;;;18.45;64.56;102180.19;5035878;28;765;-68
2021/03/01 09:34:14;;;;;;;;;;;;;;;18.44;64.77;102181.16;5035731;28;825;-50
2021/03/01 09:36:41;;;;;;;;;;;;;;;18.45;65.17;102211.47;5035570;28;890;-50
2021/03/01 09:39:07;;;;;;;;;;;;;;;18.42;64.58;102192.91;5035923;28;1890;-67
2021/03/01 09:41:39;;;;;;;;;;;;;;;18.47;65.08;102217.59;5035902;28;797;-67
2021/03/01 09:44:05;;;;;;;;;;;;;;;18.48;64.74;102208.59;5035899;28;781;-68
2021/03/01 09:46:31;;;;;;;;;;;;;;;18.48;64.84;102209.47;5035814;28;800;-51
2021/03/01 09:48:58;;;;;;;;;;;;;;;18.47;64.91;102209.56;5035638;28;503;-67
2021/03/01 09:51:24;;;;;;;;;;;;;;;18.48;64.70;102212.16;5035545;28;826;-50
2021/03/01 09:53:49;;;;;;;;;;;;;;;18.47;65.00;102209.56;5035178;28;863;-50
2021/03/01 09:56:16;;;;;;;;;;;;;;;18.47;65.17;102222.97;5035467;28;785;-68
2021/03/01 09:58:42;;;;;;;;;;;;;;;18.49;64.95;102245.16;5034798;28;1898;-59
2021/03/01 10:01:07;;;;;;;;;;;;;;;18.46;64.81;102231.94;5035090;28;1337;-52
2021/03/01 10:03:33;;;;;;;;;;;;;;;18.47;64.75;102249.75;5035153;28;892;-67
2021/03/01 10:05:58;;;;;;;;;;;;;;;18.45;65.37;102240.94;5035214;28;734;-50
2021/03/01 10:08:27;;;;;;;;;;;;;;;18.39;65.30;102247.53;5035315;28;806;-68
2021/03/01 10:10:52;;;;;;;;;;;;;;;18.41;65.23;102239.41;5035082;28;1132;-50
2021/03/01 10:13:25;;;;;;;;;;;;;;;18.39;65.21;102242.19;5035243;28;1038;-67
2021/03/01 10:15:51;;;;;;;;;;;;;;;18.40;64.80;102253.75;5034926;28;823;-68
2021/03/01 10:18:16;;;;;;;;;;;;;;;18.38;65.04;102250.31;5034811;28;825;-51
2021/03/01 10:20:46;;;;;;;;;;;;;;;18.40;65.33;102257.31;5035118;28;1965;-51
2021/03/01 10:23:11;;;;;;;;;;;;;;;18.41;65.30;102247.44;5034870;28;991;-67
2021/03/01 10:25:39;;;;;;;;;;;;;;;18.36;65.01;102247.72;5034861;28;745;-68
2021/03/01 10:28:24;;;;;;;;;;;;;;;18.41;65.17;102261.69;5035061;28;750;-50
2021/03/01 10:31:06;;;;;;;;;;;;;;;18.40;65.20;102256.44;5034264;28;1599;-50
2021/03/01 10:33:46;;;;;;;;;;;;;;;18.38;65.25;102258.34;5035051;28;765;-67
2021/03/01 10:36:12;;;;;;;;;;;;;;;18.41;64.80;102260.84;5035040;28;748;-52
2021/03/01 10:38:49;;;;;;;;;;;;;;;18.40;65.29;102254.63;5034953;28;1963;-68
2021/03/01 10:41:16;;;;;;;;;;;;;;;18.40;64.84;102265.34;5034618;28;844;-68
2021/03/01 10:43:54;;;;;;;;;;;;;;;18.38;65.26;102267.25;5034942;28;767;-68
2021/03/01 10:46:40;;;;;;;;;;;;;;;18.37;64.98;102249.44;5034903;28;861;-68
2021/03/01 10:49:19;;;;;;;;;;;;;;;18.43;65.36;102275.84;5024012;28;1282;-68
2021/03/01 10:51:45;;;;;;;;;;;;;;;18.45;65.16;102278.44;5034827;28;797;-54
2021/03/01 10:54:11;;;;;;;;;;;;;;;18.43;65.04;102285.72;5034682;28;792;-50
2021/03/01 10:56:37;;;;;;;;;;;;;;;18.46;65.25;102288.19;5035106;28;962;-68
2021/03/01 10:59:02;;;;;;;;;;;;;;;18.46;64.56;102280.16;5034967;28;1957;-60
2021/03/01 11:01:46;;;;;;;;;;;;;;;18.47;64.74;102292.59;5034716;28;1378;-50
2021/03/01 11:04:12;;;;;;;;;;;;;;;18.45;64.57;102279.28;5034446;28;860;-50
2021/03/01 11:06:38;;;;;;;;;;;;;;;18.48;64.81;102297.00;5034661;28;813;-68
2021/03/01 11:09:04;;;;;;;;;;;;;;;18.46;64.86;102291.75;5035952;28;769;-68
2021/03/01 11:11:29;;;;;;;;;;;;;;;18.43;65.19;102296.44;5038297;28;1159;-51
2021/03/01 11:13:55;;;;;;;;;;;;;;;18.45;64.97;102291.84;5038558;28;838;-68
2021/03/01 11:16:20;;;;;;;;;;;;;;;18.45;65.01;102322.16;5038298;28;738;-68
2021/03/01 11:18:46;;;;;;;;;;;;;;;18.45;65.40;102311.44;5038143;28;1922;-68
2021/03/01 11:21:12;;;;;;;;;;;;;;;18.47;65.09;102319.38;5038106;28;864;-51
2021/03/01 11:23:37;;;;;;;;;;;;;;;18.40;64.71;102299.28;5038342;28;733;-67
2021/03/01 11:26:02;;;;;;;;;;;;;;;18.40;65.33;102323.38;5038308;28;761;-52
2021/03/01 11:28:28;;;;;;;;;;;;;;;18.39;64.94;102311.81;5038613;28;746;-50
2021/03/01 11:30:53;;;;;;;;;;;;;;;18.43;65.07;102313.34;5036859;28;1494;-67
2021/03/01 11:33:18;;;;;;;;;;;;;;;18.42;64.68;102319.69;5035211;28;1525;-67
2021/03/01 11:35:44;;;;;;;;;;;;;;;18.42;65.22;102321.47;5036143;28;1390;-67
2021/03/01 11:38:09;;;;;;;;;;;;;;;18.45;64.91;102323.97;5036637;28;1370;-50
2021/03/01 11:40:35;;;;;;;;;;;;;;;18.40;64.86;102318.03;5035443;28;1969;-68
2021/03/01 11:43:00;;;;;;;;;;;;;;;18.43;65.08;102324.06;5035836;28;835;-68
2021/03/01 11:45:26;;;;;;;;;;;;;;;18.41;64.55;102330.47;5034251;28;753;-68
2021/03/01 11:47:51;;;;;;;;;;;;;;;18.41;64.64;102331.34;5034460;28;733;-61
2021/03/01 11:50:17;;;;;;;;;;;;;;;18.41;64.63;102342.03;5034667;28;964;-51
2021/03/01 11:52:43;;;;;;;;;;;;;;;18.40;64.73;102343.03;5034908;28;706;-65
2021/03/01 11:55:08;;;;;;;;;;;;;;;18.39;64.46;102327.88;5034609;28;841;-67
2021/03/01 11:57:33;;;;;;;;;;;;;;;18.40;65.24;102339.47;5035721;28;762;-50
2021/03/01 11:59:59;;;;;;;;;;;;;;;18.39;64.68;102330.56;5037387;28;1882;-51
2021/03/01 12:02:24;;;;;;;;;;;;;;;18.39;64.93;102332.41;5037366;28;1413;-50
2021/03/01 12:04:49;;;;;;;;;;;;;;;18.39;64.66;102335.94;5036433;28;789;-59
2021/03/01 12:07:14;;;;;;;;;;;;;;;18.40;64.85;102340.34;5037287;28;865;-67
2021/03/01 12:09:40;;;;;;;;;;;;;;;18.38;64.99;102346.72;5037652;28;778;-67
2021/03/01 12:12:05;;;;;;;;;;;;;;;18.42;64.85;102337.53;5037230;28;1269;-50
2021/03/01 12:14:30;;;;;;;;;;;;;;;18.37;64.86;102343.19;5037422;28;872;-50
2021/03/01 12:16:55;;;;;;;;;;;;;;;18.41;64.70;102344.72;5037480;28;857;-67
2021/03/01 12:19:20;;;;;;;;;;;;;;;18.37;64.93;102345.00;5037278;28;1906;-51
2021/03/01 12:21:46;;;;;;;;;;;;;;;18.40;64.79;102339.47;5036739;28;826;-51
2021/03/01 12:24:12;;;;;;;;;;;;;;;18.42;64.46;102343.78;5037364;28;846;-60
2021/03/01 12:26:37;;;;;;;;;;;;;;;18.44;64.71;102335.63;5037033;28;749;-50
2021/03/01 12:29:02;;;;;;;;;;;;;;;18.45;64.47;102353.44;5037275;28;997;-50
2021/03/01 12:31:28;;;;;;;;;;;;;;;18.46;64.74;102360.50;5036967;28;740;-50
2021/03/01 12:33:53;;;;;;;;;;;;;;;18.47;64.60;102356.88;5037120;28;758;-67
2021/03/01 12:36:18;;;;;;;;;;;;;;;18.46;64.59;102349.78;5036704;28;817;-59
2021/03/01 12:38:44;;;;;;;;;;;;;;;18.47;64.50;102363.09;5036973;28;1945;-67
2021/03/01 12:41:09;;;;;;;;;;;;;;;18.46;64.24;102357.84;5036767;28;890;-50
2021/03/01 12:43:34;;;;;;;;;;;;;;;18.49;64.59;102368.38;5036631;28;891;-51
2021/03/01 12:46:00;;;;;;;;;;;;;;;18.46;64.27;102364.06;5036701;28;793;-68
2021/03/01 12:48:25;;;;;;;;;;;;;;;18.46;64.54;102372.09;5036807;28;1132;-68
2021/03/01 12:50:50;;;;;;;;;;;;;;;18.45;64.42;102364.16;5036820;28;842;-51
2021/03/01 12:53:15;;;;;;;;;;;;;;;18.45;64.52;102367.69;5036501;28;796;-51